Time;durP1;ratioP1;P1;durP2;ratioP2;P2;SDS_P1;SDS_P2;PMS_P1;PMS_P2;Temp;Humidity;BMP_temperature;BMP_pressure;BME280_temperature;BME280_humidity;BME280_pressure;Samples;Min_cycle;Max_cycle;Signal;HPM_P1;HPM_P2
2020/09/14 00:00:58;;;;;;;17.65;15.95;;;;;;;13.19;82.46094;96189.12;;;;
2020/09/14 00:01:58;;;;;;;17.65;15.95;;;;;;;13.19;82.46094;96189.12;;;;
2020/09/14 00:02:59;;;;;;;17.45;15.75;;;;;;;13.06;82.89844;96187.98;;;;
2020/09/14 00:03:59;;;;;;;17.45;15.75;;;;;;;13.06;82.89844;96187.98;;;;
2020/09/14 00:05:00;;;;;;;17.45;15.75;;;;;;;13.06;82.89844;96187.98;;;;
2020/09/14 00:06:00;;;;;;;17.45;15.75;;;;;;;13.06;82.89844;96187.98;;;;
2020/09/14 00:07:01;;;;;;;17.45;15.75;;;;;;;13.06;82.89844;96187.98;;;;
2020/09/14 00:08:02;;;;;;;17.45;15.75;;;;;;;13.06;82.89844;96187.98;;;;
2020/09/14 00:09:03;;;;;;;17.45;15.75;;;;;;;13.06;82.89844;96187.98;;;;
2020/09/14 00:10:03;;;;;;;17.45;15.75;;;;;;;13.06;82.89844;96187.98;;;;
2020/09/14 00:11:04;;;;;;;17.45;15.75;;;;;;;13.06;82.89844;96187.98;;;;
2020/09/14 00:12:05;;;;;;;17.45;15.75;;;;;;;13.06;82.89844;96187.98;;;;
2020/09/14 00:13:05;;;;;;;18.55;16.75;;;;;;;12.94;83.54004;96189.75;;;;
2020/09/14 00:14:06;;;;;;;18.55;16.75;;;;;;;12.94;83.54004;96189.75;;;;
2020/09/14 00:15:06;;;;;;;18.55;16.75;;;;;;;12.94;83.54004;96189.75;;;;
2020/09/14 00:16:07;;;;;;;18.55;16.75;;;;;;;12.94;83.54004;96189.75;;;;
2020/09/14 00:17:07;;;;;;;18.55;16.75;;;;;;;12.94;83.54004;96189.75;;;;
2020/09/14 00:18:08;;;;;;;18.55;16.75;;;;;;;12.94;83.54004;96189.75;;;;
2020/09/14 00:19:08;;;;;;;18.55;16.75;;;;;;;12.94;83.54004;96189.75;;;;
2020/09/14 00:20:09;;;;;;;18.55;16.75;;;;;;;12.94;83.54004;96189.75;;;;
2020/09/14 00:21:09;;;;;;;18.55;16.75;;;;;;;12.94;83.54004;96189.75;;;;
2020/09/14 00:22:10;;;;;;;18.55;16.75;;;;;;;12.94;83.54004;96189.75;;;;
2020/09/14 00:23:10;;;;;;;18.55;16.75;;;;;;;12.94;83.54004;96189.75;;;;
2020/09/14 00:24:11;;;;;;;18.15;16.45;;;;;;;12.85;84.11426;96188.82;;;;
2020/09/14 00:25:11;;;;;;;18.15;16.45;;;;;;;12.85;84.11426;96188.82;;;;
2020/09/14 00:26:12;;;;;;;18.15;16.45;;;;;;;12.85;84.11426;96188.82;;;;
2020/09/14 00:27:12;;;;;;;18.15;16.45;;;;;;;12.85;84.11426;96188.82;;;;
2020/09/14 00:28:13;;;;;;;18.15;16.45;;;;;;;12.85;84.11426;96188.82;;;;
2020/09/14 00:29:13;;;;;;;18.15;16.45;;;;;;;12.85;84.11426;96188.82;;;;
2020/09/14 00:30:14;;;;;;;18.15;16.45;;;;;;;12.85;84.11426;96188.82;;;;
2020/09/14 00:31:14;;;;;;;18.15;16.45;;;;;;;12.85;84.11426;96188.82;;;;
2020/09/14 00:32:15;;;;;;;18.15;16.45;;;;;;;12.85;84.11426;96188.82;;;;
2020/09/14 00:33:15;;;;;;;18.15;16.45;;;;;;;12.85;84.11426;96188.82;;;;
2020/09/14 00:34:16;;;;;;;18.15;16.45;;;;;;;12.85;84.11426;96188.82;;;;
2020/09/14 00:35:16;;;;;;;19;17;;;;;;;12.85;84.41406;96178.4;;;;
2020/09/14 00:36:17;;;;;;;19;17;;;;;;;12.85;84.41406;96178.4;;;;
2020/09/14 00:37:17;;;;;;;19;17;;;;;;;12.85;84.41406;96178.4;;;;
2020/09/14 00:38:18;;;;;;;19;17;;;;;;;12.85;84.41406;96178.4;;;;
2020/09/14 00:39:18;;;;;;;19;17;;;;;;;12.85;84.41406;96178.4;;;;
2020/09/14 00:40:19;;;;;;;19;17;;;;;;;12.85;84.41406;96178.4;;;;
2020/09/14 00:41:19;;;;;;;19;17;;;;;;;12.85;84.41406;96178.4;;;;
2020/09/14 00:42:20;;;;;;;19;17;;;;;;;12.85;84.41406;96178.4;;;;
2020/09/14 00:43:22;;;;;;;19;17;;;;;;;12.85;84.41406;96178.4;;;;
2020/09/14 00:44:23;;;;;;;19;17;;;;;;;12.85;84.41406;96178.4;;;;
2020/09/14 00:45:23;;;;;;;18.65;16.85;;;;;;;12.73;84.81934;96177.94;;;;
2020/09/14 00:46:24;;;;;;;18.65;16.85;;;;;;;12.73;84.81934;96177.94;;;;
2020/09/14 00:47:26;;;;;;;18.65;16.85;;;;;;;12.73;84.81934;96177.94;;;;
2020/09/14 00:48:29;;;;;;;18.65;16.85;;;;;;;12.73;84.81934;96177.94;;;;
2020/09/14 00:49:31;;;;;;;18.65;16.85;;;;;;;12.73;84.81934;96177.94;;;;
2020/09/14 00:50:34;;;;;;;18.65;16.85;;;;;;;12.73;84.81934;96177.94;;;;
2020/09/14 00:51:35;;;;;;;18.65;16.85;;;;;;;12.73;84.81934;96177.94;;;;
2020/09/14 00:52:35;;;;;;;18.65;16.85;;;;;;;12.73;84.81934;96177.94;;;;
2020/09/14 00:53:36;;;;;;;18.65;16.85;;;;;;;12.73;84.81934;96177.94;;;;
2020/09/14 00:54:37;;;;;;;18.65;16.85;;;;;;;12.73;84.81934;96177.94;;;;
2020/09/14 00:55:37;;;;;;;18.65;16.85;;;;;;;12.73;84.81934;96177.94;;;;
2020/09/14 00:56:38;;;;;;;18.1;16.25;;;;;;;12.59;85.4375;96176.84;;;;
2020/09/14 00:57:44;;;;;;;18.1;16.25;;;;;;;12.59;85.4375;96176.84;;;;
2020/09/14 00:58:55;;;;;;;18.1;16.25;;;;;;;12.59;85.4375;96176.84;;;;
2020/09/14 00:59:57;;;;;;;18.1;16.25;;;;;;;12.59;85.4375;96176.84;;;;
2020/09/14 01:03:00;;;;;;;18.1;16.25;;;;;;;12.59;85.4375;96176.84;;;;
2020/09/14 01:04:01;;;;;;;18.1;16.25;;;;;;;12.59;85.4375;96176.84;;;;
2020/09/14 01:05:02;;;;;;;18.1;16.25;;;;;;;12.59;85.4375;96176.84;;;;
2020/09/14 01:06:04;;;;;;;18.1;16.25;;;;;;;12.59;85.4375;96176.84;;;;
2020/09/14 01:07:04;;;;;;;18.15;16.35;;;;;;;12.48;85.89746;96181.27;;;;
2020/09/14 01:08:13;;;;;;;18.15;16.35;;;;;;;12.48;85.89746;96181.27;;;;
2020/09/14 01:09:19;;;;;;;18.15;16.35;;;;;;;12.48;85.89746;96181.27;;;;
2020/09/14 01:10:24;;;;;;;18.15;16.35;;;;;;;12.48;85.89746;96181.27;;;;
2020/09/14 01:11:27;;;;;;;18.15;16.35;;;;;;;12.48;85.89746;96181.27;;;;
2020/09/14 01:12:28;;;;;;;18.15;16.35;;;;;;;12.48;85.89746;96181.27;;;;
2020/09/14 01:13:28;;;;;;;18.15;16.35;;;;;;;12.48;85.89746;96181.27;;;;
2020/09/14 01:14:35;;;;;;;18.15;16.35;;;;;;;12.48;85.89746;96181.27;;;;
2020/09/14 01:15:37;;;;;;;18.15;16.35;;;;;;;12.48;85.89746;96181.27;;;;
2020/09/14 01:16:40;;;;;;;18.15;16.35;;;;;;;12.48;85.89746;96181.27;;;;
2020/09/14 01:17:54;;;;;;;18.3;16.5;;;;;;;12.36;86.3125;96183.04;;;;
2020/09/14 01:19:08;;;;;;;18.3;16.5;;;;;;;12.36;86.3125;96183.04;;;;
2020/09/14 01:20:51;;;;;;;18.3;16.5;;;;;;;12.36;86.3125;96183.04;;;;
2020/09/14 01:22:22;;;;;;;18.3;16.5;;;;;;;12.36;86.3125;96183.04;;;;
2020/09/14 01:23:57;;;;;;;18.3;16.5;;;;;;;12.36;86.3125;96183.04;;;;
2020/09/14 01:25:12;;;;;;;18.3;16.5;;;;;;;12.36;86.3125;96183.04;;;;
2020/09/14 01:26:41;;;;;;;18.3;16.5;;;;;;;12.36;86.3125;96183.04;;;;
2020/09/14 01:28:06;;;;;;;17.2;15.6;;;;;;;12.31;86.54883;96186.02;;;;
2020/09/14 01:29:35;;;;;;;17.2;15.6;;;;;;;12.31;86.54883;96186.02;;;;
2020/09/14 01:31:53;;;;;;;17.2;15.6;;;;;;;12.31;86.54883;96186.02;;;;
2020/09/14 01:33:18;;;;;;;17.2;15.6;;;;;;;12.31;86.54883;96186.02;;;;
2020/09/14 01:35:11;;;;;;;17.2;15.6;;;;;;;12.31;86.54883;96186.02;;;;
2020/09/14 01:37:02;;;;;;;17.2;15.6;;;;;;;12.31;86.54883;96186.02;;;;
2020/09/14 01:38:59;;;;;;;16.7;15.1;;;;;;;12.18;86.82129;96176.81;;;;
2020/09/14 01:40:05;;;;;;;16.7;15.1;;;;;;;12.18;86.82129;96176.81;;;;
2020/09/14 01:41:10;;;;;;;16.7;15.1;;;;;;;12.18;86.82129;96176.81;;;;
2020/09/14 01:42:16;;;;;;;16.7;15.1;;;;;;;12.18;86.82129;96176.81;;;;
2020/09/14 01:43:16;;;;;;;16.7;15.1;;;;;;;12.18;86.82129;96176.81;;;;
2020/09/14 01:44:17;;;;;;;16.7;15.1;;;;;;;12.18;86.82129;96176.81;;;;
2020/09/14 01:45:17;;;;;;;16.7;15.1;;;;;;;12.18;86.82129;96176.81;;;;
2020/09/14 01:46:18;;;;;;;16.7;15.1;;;;;;;12.18;86.82129;96176.81;;;;
2020/09/14 01:47:18;;;;;;;16.7;15.1;;;;;;;12.18;86.82129;96176.81;;;;
2020/09/14 01:48:19;;;;;;;16.7;15.1;;;;;;;12.18;86.82129;96176.81;;;;
2020/09/14 01:49:19;;;;;;;16.15;14.5;;;;;;;12.12;87.13086;96167.28;;;;
2020/09/14 01:50:20;;;;;;;16.15;14.5;;;;;;;12.12;87.13086;96167.28;;;;
2020/09/14 01:51:20;;;;;;;16.15;14.5;;;;;;;12.12;87.13086;96167.28;;;;
2020/09/14 01:52:21;;;;;;;16.15;14.5;;;;;;;12.12;87.13086;96167.28;;;;
2020/09/14 01:53:22;;;;;;;16.15;14.5;;;;;;;12.12;87.13086;96167.28;;;;
2020/09/14 01:54:23;;;;;;;16.15;14.5;;;;;;;12.12;87.13086;96167.28;;;;
2020/09/14 01:55:24;;;;;;;16.15;14.5;;;;;;;12.12;87.13086;96167.28;;;;
2020/09/14 01:56:25;;;;;;;16.15;14.5;;;;;;;12.12;87.13086;96167.28;;;;
2020/09/14 01:57:25;;;;;;;16.15;14.5;;;;;;;12.12;87.13086;96167.28;;;;
2020/09/14 01:58:26;;;;;;;16.15;14.5;;;;;;;12.12;87.13086;96167.28;;;;
2020/09/14 01:59:26;;;;;;;16.15;14.5;;;;;;;12.12;87.13086;96167.28;;;;
2020/09/14 02:00:27;;;;;;;16.8;15.3;;;;;;;12.05;87.2998;96170.99;;;;
2020/09/14 02:01:27;;;;;;;16.8;15.3;;;;;;;12.05;87.2998;96170.99;;;;
2020/09/14 02:02:28;;;;;;;16.8;15.3;;;;;;;12.05;87.2998;96170.99;;;;
2020/09/14 02:03:28;;;;;;;16.8;15.3;;;;;;;12.05;87.2998;96170.99;;;;
2020/09/14 02:04:29;;;;;;;16.8;15.3;;;;;;;12.05;87.2998;96170.99;;;;
2020/09/14 02:05:29;;;;;;;16.8;15.3;;;;;;;12.05;87.2998;96170.99;;;;
2020/09/14 02:06:30;;;;;;;16.8;15.3;;;;;;;12.05;87.2998;96170.99;;;;
2020/09/14 02:07:30;;;;;;;16.8;15.3;;;;;;;12.05;87.2998;96170.99;;;;
2020/09/14 02:08:31;;;;;;;16.8;15.3;;;;;;;12.05;87.2998;96170.99;;;;
2020/09/14 02:09:31;;;;;;;16.8;15.3;;;;;;;12.05;87.2998;96170.99;;;;
2020/09/14 02:10:32;;;;;;;17.6;15.7;;;;;;;11.97;87.53906;96165.44;;;;
2020/09/14 02:11:32;;;;;;;17.6;15.7;;;;;;;11.97;87.53906;96165.44;;;;
2020/09/14 02:12:33;;;;;;;17.6;15.7;;;;;;;11.97;87.53906;96165.44;;;;
2020/09/14 02:13:33;;;;;;;17.6;15.7;;;;;;;11.97;87.53906;96165.44;;;;
2020/09/14 02:14:34;;;;;;;17.6;15.7;;;;;;;11.97;87.53906;96165.44;;;;
2020/09/14 02:15:34;;;;;;;17.6;15.7;;;;;;;11.97;87.53906;96165.44;;;;
2020/09/14 02:16:35;;;;;;;17.6;15.7;;;;;;;11.97;87.53906;96165.44;;;;
2020/09/14 02:17:35;;;;;;;17.6;15.7;;;;;;;11.97;87.53906;96165.44;;;;
2020/09/14 02:18:36;;;;;;;17.6;15.7;;;;;;;11.97;87.53906;96165.44;;;;
2020/09/14 02:19:36;;;;;;;17.6;15.7;;;;;;;11.97;87.53906;96165.44;;;;
2020/09/14 02:20:37;;;;;;;17.6;15.7;;;;;;;11.97;87.53906;96165.44;;;;
2020/09/14 02:21:37;;;;;;;18.15;16.35;;;;;;;11.81;87.99023;96164.56;;;;
2020/09/14 02:22:38;;;;;;;18.15;16.35;;;;;;;11.81;87.99023;96164.56;;;;
2020/09/14 02:23:38;;;;;;;18.15;16.35;;;;;;;11.81;87.99023;96164.56;;;;
2020/09/14 02:24:39;;;;;;;18.15;16.35;;;;;;;11.81;87.99023;96164.56;;;;
2020/09/14 02:25:39;;;;;;;18.15;16.35;;;;;;;11.81;87.99023;96164.56;;;;
2020/09/14 02:26:40;;;;;;;18.15;16.35;;;;;;;11.81;87.99023;96164.56;;;;
2020/09/14 02:27:40;;;;;;;18.15;16.35;;;;;;;11.81;87.99023;96164.56;;;;
2020/09/14 02:28:41;;;;;;;18.15;16.35;;;;;;;11.81;87.99023;96164.56;;;;
2020/09/14 02:29:41;;;;;;;18.15;16.35;;;;;;;11.81;87.99023;96164.56;;;;
2020/09/14 02:30:42;;;;;;;18.15;16.35;;;;;;;11.81;87.99023;96164.56;;;;
2020/09/14 02:31:42;;;;;;;17.25;15.65;;;;;;;11.67;88.51563;96161.25;;;;
2020/09/14 02:32:43;;;;;;;17.25;15.65;;;;;;;11.67;88.51563;96161.25;;;;
2020/09/14 02:33:43;;;;;;;17.25;15.65;;;;;;;11.67;88.51563;96161.25;;;;
2020/09/14 02:34:44;;;;;;;17.25;15.65;;;;;;;11.67;88.51563;96161.25;;;;
2020/09/14 02:35:44;;;;;;;17.25;15.65;;;;;;;11.67;88.51563;96161.25;;;;
2020/09/14 02:36:45;;;;;;;17.25;15.65;;;;;;;11.67;88.51563;96161.25;;;;
2020/09/14 02:37:45;;;;;;;17.25;15.65;;;;;;;11.67;88.51563;96161.25;;;;
2020/09/14 02:38:46;;;;;;;17.25;15.65;;;;;;;11.67;88.51563;96161.25;;;;
2020/09/14 02:39:46;;;;;;;17.25;15.65;;;;;;;11.67;88.51563;96161.25;;;;
2020/09/14 02:40:47;;;;;;;17.25;15.65;;;;;;;11.67;88.51563;96161.25;;;;
2020/09/14 02:41:47;;;;;;;17.25;15.65;;;;;;;11.67;88.51563;96161.25;;;;
2020/09/14 02:42:48;;;;;;;17.65;15.85;;;;;;;11.56;88.8877;96151.11;;;;
2020/09/14 02:43:48;;;;;;;17.65;15.85;;;;;;;11.56;88.8877;96151.11;;;;
2020/09/14 02:44:49;;;;;;;17.65;15.85;;;;;;;11.56;88.8877;96151.11;;;;
2020/09/14 02:45:49;;;;;;;17.65;15.85;;;;;;;11.56;88.8877;96151.11;;;;
2020/09/14 02:46:50;;;;;;;17.65;15.85;;;;;;;11.56;88.8877;96151.11;;;;
2020/09/14 02:47:50;;;;;;;17.65;15.85;;;;;;;11.56;88.8877;96151.11;;;;
2020/09/14 02:48:51;;;;;;;17.65;15.85;;;;;;;11.56;88.8877;96151.11;;;;
2020/09/14 02:49:51;;;;;;;17.65;15.85;;;;;;;11.56;88.8877;96151.11;;;;
2020/09/14 02:50:52;;;;;;;17.65;15.85;;;;;;;11.56;88.8877;96151.11;;;;
2020/09/14 02:51:52;;;;;;;17.65;15.85;;;;;;;11.56;88.8877;96151.11;;;;
2020/09/14 02:52:53;;;;;;;17.65;15.85;;;;;;;11.56;88.8877;96151.11;;;;
2020/09/14 02:53:53;;;;;;;18.85;16.95;;;;;;;11.46;89.26367;96149.41;;;;
2020/09/14 02:54:54;;;;;;;18.85;16.95;;;;;;;11.46;89.26367;96149.41;;;;
2020/09/14 02:55:55;;;;;;;18.85;16.95;;;;;;;11.46;89.26367;96149.41;;;;
2020/09/14 02:56:55;;;;;;;18.85;16.95;;;;;;;11.46;89.26367;96149.41;;;;
2020/09/14 02:57:56;;;;;;;18.85;16.95;;;;;;;11.46;89.26367;96149.41;;;;
2020/09/14 02:58:56;;;;;;;18.85;16.95;;;;;;;11.46;89.26367;96149.41;;;;
2020/09/14 02:59:57;;;;;;;18.85;16.95;;;;;;;11.46;89.26367;96149.41;;;;
2020/09/14 03:00:57;;;;;;;18.85;16.95;;;;;;;11.46;89.26367;96149.41;;;;
2020/09/14 03:01:58;;;;;;;18.85;16.95;;;;;;;11.46;89.26367;96149.41;;;;
2020/09/14 03:02:58;;;;;;;18.85;16.95;;;;;;;11.46;89.26367;96149.41;;;;
2020/09/14 03:03:59;;;;;;;19.9;17.9;;;;;;;11.42;89.42676;96148.63;;;;
2020/09/14 03:04:59;;;;;;;19.9;17.9;;;;;;;11.42;89.42676;96148.63;;;;
2020/09/14 03:06:00;;;;;;;19.9;17.9;;;;;;;11.42;89.42676;96148.63;;;;
2020/09/14 03:07:00;;;;;;;19.9;17.9;;;;;;;11.42;89.42676;96148.63;;;;
2020/09/14 03:08:01;;;;;;;19.9;17.9;;;;;;;11.42;89.42676;96148.63;;;;
2020/09/14 03:09:01;;;;;;;19.9;17.9;;;;;;;11.42;89.42676;96148.63;;;;
2020/09/14 03:10:02;;;;;;;19.9;17.9;;;;;;;11.42;89.42676;96148.63;;;;
2020/09/14 03:11:03;;;;;;;19.9;17.9;;;;;;;11.42;89.42676;96148.63;;;;
2020/09/14 03:12:03;;;;;;;19.9;17.9;;;;;;;11.42;89.42676;96148.63;;;;
2020/09/14 03:13:04;;;;;;;19.9;17.9;;;;;;;11.42;89.42676;96148.63;;;;
2020/09/14 03:14:04;;;;;;;19.9;17.9;;;;;;;11.42;89.42676;96148.63;;;;
2020/09/14 03:15:05;;;;;;;19.85;17.85;;;;;;;11.34;89.54004;96147.53;;;;
2020/09/14 03:16:05;;;;;;;19.85;17.85;;;;;;;11.34;89.54004;96147.53;;;;
2020/09/14 03:17:06;;;;;;;19.85;17.85;;;;;;;11.34;89.54004;96147.53;;;;
2020/09/14 03:18:06;;;;;;;19.85;17.85;;;;;;;11.34;89.54004;96147.53;;;;
2020/09/14 03:19:07;;;;;;;19.85;17.85;;;;;;;11.34;89.54004;96147.53;;;;
2020/09/14 03:20:07;;;;;;;19.85;17.85;;;;;;;11.34;89.54004;96147.53;;;;
2020/09/14 03:21:08;;;;;;;19.85;17.85;;;;;;;11.34;89.54004;96147.53;;;;
2020/09/14 03:22:08;;;;;;;19.85;17.85;;;;;;;11.34;89.54004;96147.53;;;;
2020/09/14 03:23:09;;;;;;;19.85;17.85;;;;;;;11.34;89.54004;96147.53;;;;
2020/09/14 03:24:09;;;;;;;19.85;17.85;;;;;;;11.34;89.54004;96147.53;;;;
2020/09/14 03:25:12;;;;;;;20.2;18.15;;;;;;;11.3;89.90332;96140.48;;;;
2020/09/14 03:26:12;;;;;;;20.2;18.15;;;;;;;11.3;89.90332;96140.48;;;;
2020/09/14 03:27:13;;;;;;;20.2;18.15;;;;;;;11.3;89.90332;96140.48;;;;
2020/09/14 03:28:13;;;;;;;20.2;18.15;;;;;;;11.3;89.90332;96140.48;;;;
2020/09/14 03:29:14;;;;;;;20.2;18.15;;;;;;;11.3;89.90332;96140.48;;;;
2020/09/14 03:30:14;;;;;;;20.2;18.15;;;;;;;11.3;89.90332;96140.48;;;;
2020/09/14 03:31:15;;;;;;;20.2;18.15;;;;;;;11.3;89.90332;96140.48;;;;
2020/09/14 03:32:15;;;;;;;20.2;18.15;;;;;;;11.3;89.90332;96140.48;;;;
2020/09/14 03:33:16;;;;;;;20.2;18.15;;;;;;;11.3;89.90332;96140.48;;;;
2020/09/14 03:34:16;;;;;;;20.2;18.15;;;;;;;11.3;89.90332;96140.48;;;;
2020/09/14 03:35:17;;;;;;;20.2;18.15;;;;;;;11.3;89.90332;96140.48;;;;
2020/09/14 03:36:18;;;;;;;21.05;18.85;;;;;;;11.26;90.10938;96139.67;;;;
2020/09/14 03:37:18;;;;;;;21.05;18.85;;;;;;;11.26;90.10938;96139.67;;;;
2020/09/14 03:38:19;;;;;;;21.05;18.85;;;;;;;11.26;90.10938;96139.67;;;;
2020/09/14 03:39:19;;;;;;;21.05;18.85;;;;;;;11.26;90.10938;96139.67;;;;
2020/09/14 03:40:20;;;;;;;21.05;18.85;;;;;;;11.26;90.10938;96139.67;;;;
2020/09/14 03:41:20;;;;;;;21.05;18.85;;;;;;;11.26;90.10938;96139.67;;;;
2020/09/14 03:42:21;;;;;;;21.05;18.85;;;;;;;11.26;90.10938;96139.67;;;;
2020/09/14 03:43:21;;;;;;;21.05;18.85;;;;;;;11.26;90.10938;96139.67;;;;
2020/09/14 03:44:26;;;;;;;21.05;18.85;;;;;;;11.26;90.10938;96139.67;;;;
2020/09/14 03:45:27;;;;;;;21.05;18.85;;;;;;;11.26;90.10938;96139.67;;;;
2020/09/14 03:46:27;;;;;;;21.8;19.55;;;;;;;11.26;90.36523;96137.94;;;;
2020/09/14 03:47:30;;;;;;;21.8;19.55;;;;;;;11.26;90.36523;96137.94;;;;
2020/09/14 03:48:32;;;;;;;21.8;19.55;;;;;;;11.26;90.36523;96137.94;;;;
2020/09/14 03:49:34;;;;;;;21.8;19.55;;;;;;;11.26;90.36523;96137.94;;;;
2020/09/14 03:50:34;;;;;;;21.8;19.55;;;;;;;11.26;90.36523;96137.94;;;;
2020/09/14 03:51:40;;;;;;;21.8;19.55;;;;;;;11.26;90.36523;96137.94;;;;
2020/09/14 03:52:45;;;;;;;21.8;19.55;;;;;;;11.26;90.36523;96137.94;;;;
2020/09/14 03:53:47;;;;;;;21.8;19.55;;;;;;;11.26;90.36523;96137.94;;;;
2020/09/14 03:54:48;;;;;;;21.8;19.55;;;;;;;11.26;90.36523;96137.94;;;;
2020/09/14 03:55:48;;;;;;;21.8;19.55;;;;;;;11.26;90.36523;96137.94;;;;
2020/09/14 03:56:52;;;;;;;21.8;19.55;;;;;;;11.26;90.36523;96137.94;;;;
2020/09/14 03:57:53;;;;;;;31.05;27.8;;;;;;;11.32;90.70898;96133.4;;;;
2020/09/14 03:58:54;;;;;;;31.05;27.8;;;;;;;11.32;90.70898;96133.4;;;;
2020/09/14 03:59:56;;;;;;;31.05;27.8;;;;;;;11.32;90.70898;96133.4;;;;
2020/09/14 04:00:59;;;;;;;31.05;27.8;;;;;;;11.32;90.70898;96133.4;;;;
2020/09/14 04:01:59;;;;;;;31.05;27.8;;;;;;;11.32;90.70898;96133.4;;;;
2020/09/14 04:03:00;;;;;;;31.05;27.8;;;;;;;11.32;90.70898;96133.4;;;;
2020/09/14 04:04:03;;;;;;;31.05;27.8;;;;;;;11.32;90.70898;96133.4;;;;
2020/09/14 04:05:03;;;;;;;31.05;27.8;;;;;;;11.32;90.70898;96133.4;;;;
2020/09/14 04:06:04;;;;;;;31.05;27.8;;;;;;;11.32;90.70898;96133.4;;;;
2020/09/14 04:07:05;;;;;;;31.05;27.8;;;;;;;11.32;90.70898;96133.4;;;;
2020/09/14 04:08:09;;;;;;;44.94999;34.3;;;;;;;11.54;90.9248;96126.99;;;;
2020/09/14 04:09:19;;;;;;;44.94999;34.3;;;;;;;11.54;90.9248;96126.99;;;;
2020/09/14 04:10:20;;;;;;;44.94999;34.3;;;;;;;11.54;90.9248;96126.99;;;;
2020/09/14 04:11:23;;;;;;;44.94999;34.3;;;;;;;11.54;90.9248;96126.99;;;;
2020/09/14 04:12:24;;;;;;;44.94999;34.3;;;;;;;11.54;90.9248;96126.99;;;;
2020/09/14 04:13:29;;;;;;;44.94999;34.3;;;;;;;11.54;90.9248;96126.99;;;;
2020/09/14 04:14:29;;;;;;;44.94999;34.3;;;;;;;11.54;90.9248;96126.99;;;;
2020/09/14 04:15:31;;;;;;;44.94999;34.3;;;;;;;11.54;90.9248;96126.99;;;;
2020/09/14 04:16:31;;;;;;;44.94999;34.3;;;;;;;11.54;90.9248;96126.99;;;;
2020/09/14 04:17:32;;;;;;;44.94999;34.3;;;;;;;11.54;90.9248;96126.99;;;;
2020/09/14 04:18:41;;;;;;;37.95;31.75;;;;;;;11.55;91.21484;96127.8;;;;
2020/09/14 04:19:43;;;;;;;37.95;31.75;;;;;;;11.55;91.21484;96127.8;;;;
2020/09/14 04:20:43;;;;;;;37.95;31.75;;;;;;;11.55;91.21484;96127.8;;;;
2020/09/14 04:21:44;;;;;;;37.95;31.75;;;;;;;11.55;91.21484;96127.8;;;;
2020/09/14 04:22:45;;;;;;;37.95;31.75;;;;;;;11.55;91.21484;96127.8;;;;
2020/09/14 04:23:48;;;;;;;37.95;31.75;;;;;;;11.55;91.21484;96127.8;;;;
2020/09/14 04:24:50;;;;;;;37.95;31.75;;;;;;;11.55;91.21484;96127.8;;;;
2020/09/14 04:25:50;;;;;;;37.95;31.75;;;;;;;11.55;91.21484;96127.8;;;;
2020/09/14 04:26:52;;;;;;;37.95;31.75;;;;;;;11.55;91.21484;96127.8;;;;
2020/09/14 04:27:58;;;;;;;37.95;31.75;;;;;;;11.55;91.21484;96127.8;;;;
2020/09/14 04:28:59;;;;;;;37.95;31.75;;;;;;;11.55;91.21484;96127.8;;;;
2020/09/14 04:30:04;;;;;;;31.4;26;;;;;;;11.51;91.7832;96134.17;;;;
2020/09/14 04:31:06;;;;;;;31.4;26;;;;;;;11.51;91.7832;96134.17;;;;
2020/09/14 04:32:10;;;;;;;31.4;26;;;;;;;11.51;91.7832;96134.17;;;;
2020/09/14 04:33:15;;;;;;;31.4;26;;;;;;;11.51;91.7832;96134.17;;;;
2020/09/14 04:34:16;;;;;;;31.4;26;;;;;;;11.51;91.7832;96134.17;;;;
2020/09/14 04:35:16;;;;;;;31.4;26;;;;;;;11.51;91.7832;96134.17;;;;
2020/09/14 04:36:34;;;;;;;31.4;26;;;;;;;11.51;91.7832;96134.17;;;;
2020/09/14 04:37:35;;;;;;;31.4;26;;;;;;;11.51;91.7832;96134.17;;;;
2020/09/14 04:38:42;;;;;;;31.4;26;;;;;;;11.51;91.7832;96134.17;;;;
2020/09/14 04:39:43;;;;;;;31.4;26;;;;;;;11.51;91.7832;96134.17;;;;
2020/09/14 04:40:45;;;;;;;31.85;27.65;;;;;;;11.38;92.07324;96128.06;;;;
2020/09/14 04:41:58;;;;;;;31.85;27.65;;;;;;;11.38;92.07324;96128.06;;;;
2020/09/14 04:42:59;;;;;;;31.85;27.65;;;;;;;11.38;92.07324;96128.06;;;;
2020/09/14 04:44:00;;;;;;;31.85;27.65;;;;;;;11.38;92.07324;96128.06;;;;
2020/09/14 04:45:01;;;;;;;31.85;27.65;;;;;;;11.38;92.07324;96128.06;;;;
2020/09/14 04:46:02;;;;;;;31.85;27.65;;;;;;;11.38;92.07324;96128.06;;;;
2020/09/14 04:47:03;;;;;;;31.85;27.65;;;;;;;11.38;92.07324;96128.06;;;;
2020/09/14 04:48:04;;;;;;;31.85;27.65;;;;;;;11.38;92.07324;96128.06;;;;
2020/09/14 04:49:05;;;;;;;31.85;27.65;;;;;;;11.38;92.07324;96128.06;;;;
2020/09/14 04:50:13;;;;;;;31.85;27.65;;;;;;;11.38;92.07324;96128.06;;;;
2020/09/14 04:51:14;;;;;;;28.95;25.85;;;;;;;11.35;92.45313;96135.66;;;;
2020/09/14 04:52:15;;;;;;;28.95;25.85;;;;;;;11.35;92.45313;96135.66;;;;
2020/09/14 04:53:16;;;;;;;28.95;25.85;;;;;;;11.35;92.45313;96135.66;;;;
2020/09/14 04:54:20;;;;;;;28.95;25.85;;;;;;;11.35;92.45313;96135.66;;;;
2020/09/14 04:55:21;;;;;;;28.95;25.85;;;;;;;11.35;92.45313;96135.66;;;;
2020/09/14 04:56:23;;;;;;;28.95;25.85;;;;;;;11.35;92.45313;96135.66;;;;
2020/09/14 04:57:24;;;;;;;28.95;25.85;;;;;;;11.35;92.45313;96135.66;;;;
2020/09/14 04:58:26;;;;;;;28.95;25.85;;;;;;;11.35;92.45313;96135.66;;;;
2020/09/14 04:59:31;;;;;;;28.95;25.85;;;;;;;11.35;92.45313;96135.66;;;;
2020/09/14 05:00:32;;;;;;;28.95;25.85;;;;;;;11.35;92.45313;96135.66;;;;
2020/09/14 05:01:32;;;;;;;28.05;25;;;;;;;11.26;92.7207;96137.94;;;;
2020/09/14 05:02:34;;;;;;;28.05;25;;;;;;;11.26;92.7207;96137.94;;;;
2020/09/14 05:03:44;;;;;;;28.05;25;;;;;;;11.26;92.7207;96137.94;;;;
2020/09/14 05:05:02;;;;;;;28.05;25;;;;;;;11.26;92.7207;96137.94;;;;
2020/09/14 05:06:03;;;;;;;28.05;25;;;;;;;11.26;92.7207;96137.94;;;;
2020/09/14 05:07:05;;;;;;;28.05;25;;;;;;;11.26;92.7207;96137.94;;;;
2020/09/14 05:08:05;;;;;;;28.05;25;;;;;;;11.26;92.7207;96137.94;;;;
2020/09/14 05:09:07;;;;;;;28.05;25;;;;;;;11.26;92.7207;96137.94;;;;
2020/09/14 05:10:08;;;;;;;28.05;25;;;;;;;11.26;92.7207;96137.94;;;;
2020/09/14 05:11:11;;;;;;;28.05;25;;;;;;;11.26;92.7207;96137.94;;;;
2020/09/14 05:12:12;;;;;;;28.9;25.85;;;;;;;11.21;93.12695;96138.16;;;;
2020/09/14 05:13:13;;;;;;;28.9;25.85;;;;;;;11.21;93.12695;96138.16;;;;
2020/09/14 05:14:17;;;;;;;28.9;25.85;;;;;;;11.21;93.12695;96138.16;;;;
2020/09/14 05:15:32;;;;;;;28.9;25.85;;;;;;;11.21;93.12695;96138.16;;;;
2020/09/14 05:16:44;;;;;;;28.9;25.85;;;;;;;11.21;93.12695;96138.16;;;;
2020/09/14 05:17:46;;;;;;;28.9;25.85;;;;;;;11.21;93.12695;96138.16;;;;
2020/09/14 05:18:52;;;;;;;28.9;25.85;;;;;;;11.21;93.12695;96138.16;;;;
2020/09/14 05:19:53;;;;;;;28.9;25.85;;;;;;;11.21;93.12695;96138.16;;;;
2020/09/14 05:20:55;;;;;;;28.9;25.85;;;;;;;11.21;93.12695;96138.16;;;;
2020/09/14 05:21:55;;;;;;;28.9;25.85;;;;;;;11.21;93.12695;96138.16;;;;
2020/09/14 05:23:24;;;;;;;28.1;24.9;;;;;;;11.23;93.35449;96140.12;;;;
2020/09/14 05:24:57;;;;;;;28.1;24.9;;;;;;;11.23;93.35449;96140.12;;;;
2020/09/14 05:25:59;;;;;;;28.1;24.9;;;;;;;11.23;93.35449;96140.12;;;;
2020/09/14 05:26:59;;;;;;;28.1;24.9;;;;;;;11.23;93.35449;96140.12;;;;
2020/09/14 05:28:01;;;;;;;28.1;24.9;;;;;;;11.23;93.35449;96140.12;;;;
2020/09/14 05:29:10;;;;;;;28.1;24.9;;;;;;;11.23;93.35449;96140.12;;;;
2020/09/14 05:30:28;;;;;;;28.1;24.9;;;;;;;11.23;93.35449;96140.12;;;;
2020/09/14 05:31:32;;;;;;;28.1;24.9;;;;;;;11.23;93.35449;96140.12;;;;
2020/09/14 05:32:35;;;;;;;28.1;24.9;;;;;;;11.23;93.35449;96140.12;;;;
2020/09/14 05:33:37;;;;;;;27.85;24.95;;;;;;;11.36;93.35938;96142.32;;;;
2020/09/14 05:34:41;;;;;;;27.85;24.95;;;;;;;11.36;93.35938;96142.32;;;;
2020/09/14 05:35:42;;;;;;;27.85;24.95;;;;;;;11.36;93.35938;96142.32;;;;
2020/09/14 05:36:47;;;;;;;27.85;24.95;;;;;;;11.36;93.35938;96142.32;;;;
2020/09/14 05:37:48;;;;;;;27.85;24.95;;;;;;;11.36;93.35938;96142.32;;;;
2020/09/14 05:38:56;;;;;;;27.85;24.95;;;;;;;11.36;93.35938;96142.32;;;;
2020/09/14 05:39:58;;;;;;;27.85;24.95;;;;;;;11.36;93.35938;96142.32;;;;
2020/09/14 05:41:14;;;;;;;27.85;24.95;;;;;;;11.36;93.35938;96142.32;;;;
2020/09/14 05:42:44;;;;;;;27.85;24.95;;;;;;;11.36;93.35938;96142.32;;;;
2020/09/14 05:43:44;;;;;;;27.85;24.95;;;;;;;11.36;93.35938;96142.32;;;;
2020/09/14 05:44:45;;;;;;;25.95;23.2;;;;;;;11.5;93.49609;96148.86;;;;
2020/09/14 05:45:45;;;;;;;25.95;23.2;;;;;;;11.5;93.49609;96148.86;;;;
2020/09/14 05:46:52;;;;;;;25.95;23.2;;;;;;;11.5;93.49609;96148.86;;;;
2020/09/14 05:47:54;;;;;;;25.95;23.2;;;;;;;11.5;93.49609;96148.86;;;;
2020/09/14 05:48:55;;;;;;;25.95;23.2;;;;;;;11.5;93.49609;96148.86;;;;
2020/09/14 05:50:07;;;;;;;25.95;23.2;;;;;;;11.5;93.49609;96148.86;;;;
2020/09/14 05:51:16;;;;;;;25.95;23.2;;;;;;;11.5;93.49609;96148.86;;;;
2020/09/14 05:52:17;;;;;;;25.95;23.2;;;;;;;11.5;93.49609;96148.86;;;;
2020/09/14 05:53:33;;;;;;;25.95;23.2;;;;;;;11.5;93.49609;96148.86;;;;
2020/09/14 05:55:07;;;;;;;28.45;25.45;;;;;;;11.78;93.45117;96156.86;;;;
2020/09/14 05:56:08;;;;;;;28.45;25.45;;;;;;;11.78;93.45117;96156.86;;;;
2020/09/14 05:57:08;;;;;;;28.45;25.45;;;;;;;11.78;93.45117;96156.86;;;;
2020/09/14 05:58:34;;;;;;;28.45;25.45;;;;;;;11.78;93.45117;96156.86;;;;